Time;durP1;ratioP1;P1;durP2;ratioP2;P2;SDS_P1;SDS_P2;PMS_P1;PMS_P2;Temp;Humidity;BMP_temperature;BMP_pressure;BME280_temperature;BME280_humidity;BME280_pressure;Samples;Min_cycle;Max_cycle;Signal;HPM_P1;HPM_P2
2023/12/09 00:01:11;;;;;;;;;10.00;6.67;;;;;-147.47;100.00;64613.53;4896217;29;28604;-80
2023/12/09 00:03:36;;;;;;;;;6.00;4.33;;;;;-147.47;100.00;64613.53;4895268;29;28883;-81
2023/12/09 00:06:02;;;;;;;;;9.67;5.33;;;;;-147.47;100.00;64613.53;4896034;29;28431;-80
2023/12/09 00:08:27;;;;;;;;;9.00;6.33;;;;;-147.47;100.00;64613.53;4902131;29;28549;-80
2023/12/09 00:10:53;;;;;;;;;10.67;8.00;;;;;-147.47;100.00;64613.53;4903270;29;30139;-79
2023/12/09 00:13:18;;;;;;;;;8.00;6.00;;;;;-147.47;100.00;64613.53;4917455;28;29379;-80
2023/12/09 00:15:43;;;;;;;;;10.00;7.33;;;;;-147.47;100.00;64613.53;4905418;29;28651;-80
2023/12/09 00:18:09;;;;;;;;;7.33;4.33;;;;;-147.47;100.00;64613.53;4904793;28;28285;-80
2023/12/09 00:20:34;;;;;;;;;12.67;7.33;;;;;-147.47;100.00;64613.53;4901288;29;28821;-80
2023/12/09 00:23:00;;;;;;;;;8.00;6.67;;;;;-147.47;100.00;64613.53;4899964;29;29912;-80
2023/12/09 00:25:25;;;;;;;;;9.67;7.67;;;;;-147.47;100.00;64613.53;4902831;29;28546;-80
2023/12/09 00:27:51;;;;;;;;;9.67;6.00;;;;;-147.47;100.00;64613.53;4902666;29;28274;-80
2023/12/09 00:30:16;;;;;;;;;5.33;4.33;;;;;-147.47;100.00;64613.53;4901510;29;28320;-80
2023/12/09 00:32:42;;;;;;;;;10.67;8.67;;;;;-147.47;100.00;64613.53;4900454;29;30359;-80
2023/12/09 00:35:08;;;;;;;;;9.33;6.33;;;;;-147.47;100.00;64613.53;4901765;29;27817;-80
2023/12/09 00:37:33;;;;;;;;;7.00;5.67;;;;;-147.47;100.00;64613.53;4900537;29;28481;-80
2023/12/09 00:39:58;;;;;;;;;7.67;4.00;;;;;-147.47;100.00;64613.53;4898306;29;28598;-80
2023/12/09 00:42:24;;;;;;;;;11.00;7.00;;;;;-147.47;100.00;64613.53;4895981;29;28712;-80
2023/12/09 00:44:50;;;;;;;;;7.33;5.00;;;;;-147.47;100.00;64613.53;4894350;29;28512;-82
2023/12/09 00:47:15;;;;;;;;;9.00;7.00;;;;;-147.47;100.00;64613.53;4894911;29;28626;-80
2023/12/09 00:49:40;;;;;;;;;13.00;9.00;;;;;-147.47;100.00;64613.53;4884959;29;30212;-80
2023/12/09 00:52:06;;;;;;;;;8.67;6.00;;;;;-147.47;100.00;64613.53;4896196;29;42395;-80
2023/12/09 00:54:31;;;;;;;;;6.67;4.00;;;;;-147.47;100.00;64613.53;4896124;29;28553;-82
2023/12/09 00:56:56;;;;;;;;;8.00;7.00;;;;;-147.47;100.00;64613.53;4894534;29;28458;-80
2023/12/09 00:59:22;;;;;;;;;9.00;8.00;;;;;-147.47;100.00;64613.53;4896282;29;28809;-81
2023/12/09 01:01:47;;;;;;;;;8.33;6.00;;;;;-147.47;100.00;64613.53;4896456;29;29703;-80
2023/12/09 01:04:13;;;;;;;;;7.00;7.00;;;;;-147.47;100.00;64613.53;4895355;29;28921;-81
2023/12/09 01:06:38;;;;;;;;;9.00;6.00;;;;;-147.47;100.00;64613.53;4895213;29;28784;-81
2023/12/09 01:09:04;;;;;;;;;7.33;6.67;;;;;-147.47;100.00;64613.53;4895317;29;28809;-81
2023/12/09 01:11:29;;;;;;;;;7.33;7.00;;;;;-147.47;100.00;64613.53;4896906;29;28442;-78
2023/12/09 01:13:55;;;;;;;;;6.67;5.67;;;;;-147.47;100.00;64613.53;4898781;29;28485;-80
2023/12/09 01:16:20;;;;;;;;;9.00;6.00;;;;;-147.47;100.00;64613.53;4898751;29;27976;-81
2023/12/09 01:18:45;;;;;;;;;7.00;5.67;;;;;-147.47;100.00;64613.53;4897731;29;28512;-81
2023/12/09 01:21:11;;;;;;;;;10.67;7.67;;;;;-147.47;100.00;64613.53;4896649;29;28747;-80
2023/12/09 01:23:38;;;;;;;;;7.67;5.00;;;;;-147.47;100.00;64613.53;4897692;29;28495;-80
2023/12/09 01:26:03;;;;;;;;;7.00;5.67;;;;;-147.47;100.00;64613.53;4899071;29;28493;-80
2023/12/09 01:28:31;;;;;;;;;6.00;4.67;;;;;-147.47;100.00;64613.53;4892947;29;29176;-79
2023/12/09 01:30:56;;;;;;;;;9.00;8.00;;;;;-147.47;100.00;64613.53;4892200;29;28522;-81
2023/12/09 01:33:21;;;;;;;;;10.67;6.00;;;;;-147.47;100.00;64613.53;4897318;29;28490;-80
2023/12/09 01:35:47;;;;;;;;;8.00;6.00;;;;;-147.47;100.00;64613.53;4897303;29;28474;-80
2023/12/09 01:38:12;;;;;;;;;8.00;6.00;;;;;-147.47;100.00;64613.53;4897320;29;28232;-79
2023/12/09 01:40:37;;;;;;;;;10.33;7.00;;;;;-147.47;100.00;64613.53;4913524;29;30189;-79
2023/12/09 01:43:09;;;;;;;;;12.00;7.00;;;;;-147.47;100.00;64613.53;4896474;29;35351;-80
2023/12/09 01:45:34;;;;;;;;;7.33;6.33;;;;;-147.47;100.00;64613.53;4899369;29;28681;-81
2023/12/09 01:48:01;;;;;;;;;7.33;6.33;;;;;-147.47;100.00;64613.53;4899424;29;28495;-82
2023/12/09 01:50:27;;;;;;;;;9.00;5.67;;;;;-147.47;100.00;64613.53;4896977;29;30066;-79
2023/12/09 01:52:53;;;;;;;;;9.33;8.00;;;;;-147.47;100.00;64613.53;4899332;29;27860;-79
2023/12/09 01:55:19;;;;;;;;;7.67;6.33;;;;;-147.47;100.00;64613.53;4899286;29;28482;-81
2023/12/09 01:57:44;;;;;;;;;11.00;8.00;;;;;-147.47;100.00;64613.53;4898846;29;28837;-80
2023/12/09 02:00:11;;;;;;;;;8.33;6.67;;;;;-147.47;100.00;64613.53;4898371;29;29208;-78
2023/12/09 02:02:36;;;;;;;;;5.33;1.67;;;;;-147.47;100.00;64613.53;4900131;29;28880;-80
2023/12/09 02:05:03;;;;;;;;;7.33;6.33;;;;;-147.47;100.00;64613.53;4897776;29;28561;-81
2023/12/09 02:07:28;;;;;;;;;14.33;7.00;;;;;-147.47;100.00;64613.53;4893020;29;28586;-80
2023/12/09 02:09:54;;;;;;;;;10.33;8.67;;;;;-147.47;100.00;64613.53;4897271;29;28571;-80
2023/12/09 02:12:52;;;;;;;;;9.33;7.00;;;;;-147.47;100.00;64613.53;4912320;29;28828;-80
2023/12/09 02:15:40;;;;;;;;;11.67;7.00;;;;;-147.47;100.00;64613.53;4897731;29;28553;-80
2023/12/09 02:18:07;;;;;;;;;8.00;7.33;;;;;-147.47;100.00;64613.53;4895700;29;28432;-80
2023/12/09 02:20:33;;;;;;;;;9.33;7.67;;;;;-147.47;100.00;64613.53;4898974;29;28578;-80
2023/12/09 02:23:09;;;;;;;;;10.00;10.00;;;;;-147.47;100.00;64613.53;4898397;29;28172;-79
2023/12/09 02:25:36;;;;;;;;;9.67;5.67;;;;;-147.47;100.00;64613.53;4898673;29;28660;-81
2023/12/09 02:28:12;;;;;;;;;10.67;7.67;;;;;-147.47;100.00;64613.53;4892434;29;28550;-81
2023/12/09 02:31:15;;;;;;;;;12.00;8.33;;;;;-147.47;100.00;64613.53;4894345;29;28576;-80
2023/12/09 02:33:43;;;;;;;;;10.00;6.67;;;;;-147.47;100.00;64613.53;4882929;29;29043;-80
2023/12/09 02:36:10;;;;;;;;;13.33;9.33;;;;;-147.47;100.00;64613.53;4893144;29;28482;-79
2023/12/09 02:38:37;;;;;;;;;7.00;6.00;;;;;-147.47;100.00;64613.53;4895095;29;28855;-80
2023/12/09 02:41:06;;;;;;;;;9.00;8.00;;;;;-147.47;100.00;64613.53;4893402;29;28507;-82
2023/12/09 02:43:31;;;;;;;;;9.33;7.00;;;;;-147.47;100.00;64613.53;4892901;29;28591;-80
2023/12/09 02:45:57;;;;;;;;;9.00;7.00;;;;;-147.47;100.00;64613.53;4892501;29;28563;-79
2023/12/09 02:48:23;;;;;;;;;9.00;9.00;;;;;-147.47;100.00;64613.53;4892885;29;29689;-80
2023/12/09 02:50:49;;;;;;;;;13.67;8.33;;;;;-147.47;100.00;64613.53;4895036;29;28966;-80
2023/12/09 02:53:14;;;;;;;;;7.67;6.67;;;;;-147.47;100.00;64613.53;4901317;29;28740;-81
2023/12/09 02:55:40;;;;;;;;;10.00;8.00;;;;;-147.47;100.00;64613.53;4895575;29;28456;-80
2023/12/09 02:58:05;;;;;;;;;7.00;5.33;;;;;-147.47;100.00;64613.53;4894478;29;28842;-79
2023/12/09 03:00:31;;;;;;;;;9.67;8.00;;;;;-147.47;100.00;64613.53;4907266;29;30035;-79
2023/12/09 03:02:56;;;;;;;;;8.00;7.00;;;;;-147.47;100.00;64613.53;4894210;29;28805;-81
2023/12/09 03:05:22;;;;;;;;;9.00;8.33;;;;;-147.47;100.00;64613.53;4890780;29;28975;-78
2023/12/09 03:07:47;;;;;;;;;12.00;9.33;;;;;-147.47;100.00;64613.53;4892734;29;29012;-80
2023/12/09 03:10:12;;;;;;;;;7.67;6.33;;;;;-147.47;100.00;64613.53;4891467;29;29335;-81
2023/12/09 03:12:38;;;;;;;;;12.67;9.00;;;;;-147.47;100.00;64613.53;4891534;29;28579;-79
2023/12/09 03:15:05;;;;;;;;;14.00;10.00;;;;;-147.47;100.00;64613.53;4889972;29;28732;-79
2023/12/09 03:17:33;;;;;;;;;10.00;6.33;;;;;-147.47;100.00;64613.53;4890497;29;28873;-79
2023/12/09 03:19:58;;;;;;;;;12.67;9.33;;;;;-147.47;100.00;64613.53;4891814;29;29981;-80
2023/12/09 03:22:23;;;;;;;;;13.00;8.33;;;;;-147.47;100.00;64613.53;4893033;29;28836;-80
2023/12/09 03:24:49;;;;;;;;;10.00;6.00;;;;;-147.47;100.00;64613.53;4892149;29;28394;-79
2023/12/09 03:27:15;;;;;;;;;15.00;9.33;;;;;-147.47;100.00;64613.53;4893752;29;29223;-79
2023/12/09 03:29:40;;;;;;;;;10.00;8.00;;;;;-147.47;100.00;64613.53;4892388;29;28821;-81
2023/12/09 03:32:06;;;;;;;;;10.67;7.33;;;;;-147.47;100.00;64613.53;4893237;29;28488;-79
2023/12/09 03:34:31;;;;;;;;;7.67;7.67;;;;;-147.47;100.00;64613.53;4891514;29;28350;-79
2023/12/09 03:36:57;;;;;;;;;8.33;7.33;;;;;-147.47;100.00;64613.53;4891917;29;29249;-79
2023/12/09 03:39:22;;;;;;;;;10.00;9.00;;;;;-147.47;100.00;64613.53;4893629;29;29004;-82
2023/12/09 03:41:47;;;;;;;;;11.33;8.67;;;;;-147.47;100.00;64613.53;4891577;29;28148;-80
2023/12/09 03:44:13;;;;;;;;;9.00;7.67;;;;;-147.47;100.00;64613.53;4892037;29;28514;-82
2023/12/09 03:46:38;;;;;;;;;8.67;5.67;;;;;-147.47;100.00;64613.53;4893407;29;30056;-80
2023/12/09 03:49:03;;;;;;;;;8.67;7.67;;;;;-147.47;100.00;64613.53;4892498;29;29674;-78
2023/12/09 03:51:29;;;;;;;;;9.33;8.00;;;;;-147.47;100.00;64613.53;4893678;29;28511;-78
2023/12/09 03:53:54;;;;;;;;;12.67;8.33;;;;;-147.47;100.00;64613.53;4892870;29;28485;-78
2023/12/09 03:56:21;;;;;;;;;11.33;8.00;;;;;-147.47;100.00;64613.53;4893329;29;28589;-79
2023/12/09 03:58:47;;;;;;;;;7.67;7.33;;;;;-147.47;100.00;64613.53;4897221;29;30897;-79
2023/12/09 04:01:12;;;;;;;;;9.33;7.00;;;;;-147.47;100.00;64613.53;4898019;29;28910;-78
2023/12/09 04:03:38;;;;;;;;;10.33;8.00;;;;;-147.47;100.00;64613.53;4896397;29;28998;-79
2023/12/09 04:06:05;;;;;;;;;12.67;8.33;;;;;-147.47;100.00;64613.53;4895107;29;28624;-81
2023/12/09 04:08:30;;;;;;;;;16.00;9.00;;;;;-147.47;100.00;64613.53;4896543;29;29253;-78
2023/12/09 04:10:56;;;;;;;;;10.00;8.00;;;;;-147.47;100.00;64613.53;4908967;28;29211;-80
2023/12/09 04:13:21;;;;;;;;;10.00;8.67;;;;;-147.47;100.00;64613.53;4894645;29;28856;-79
2023/12/09 04:15:47;;;;;;;;;2.00;1.00;;;;;-147.47;100.00;64613.53;4895579;29;28688;-80
2023/12/09 04:18:13;;;;;;;;;10.67;9.67;;;;;-147.47;100.00;64613.53;4893118;29;28658;-79
2023/12/09 04:20:38;;;;;;;;;10.33;8.67;;;;;-147.47;100.00;64613.53;4889701;29;28513;-79
2023/12/09 04:23:04;;;;;;;;;12.67;10.00;;;;;-147.47;100.00;64613.53;4895009;29;28598;-79
2023/12/09 04:25:30;;;;;;;;;11.67;8.33;;;;;-147.47;100.00;64613.53;4908616;28;28897;-80
2023/12/09 04:27:56;;;;;;;;;9.67;8.00;;;;;-147.47;100.00;64613.53;4894790;29;28645;-79
2023/12/09 04:30:24;;;;;;;;;14.33;8.67;;;;;-147.47;100.00;64613.53;4893890;29;28113;-79
2023/12/09 04:32:50;;;;;;;;;11.67;9.00;;;;;-147.47;100.00;64613.53;4890927;29;28565;-80
2023/12/09 04:35:15;;;;;;;;;13.00;9.33;;;;;-147.47;100.00;64613.53;4894034;29;28961;-81
2023/12/09 04:37:41;;;;;;;;;8.67;8.67;;;;;-147.47;100.00;64613.53;4892233;29;28850;-79
2023/12/09 04:40:13;;;;;;;;;11.33;9.00;;;;;-147.47;100.00;64613.53;4893278;29;28610;-80
2023/12/09 04:42:39;;;;;;;;;11.33;7.67;;;;;-147.47;100.00;64613.53;4893998;29;28476;-79
2023/12/09 04:45:06;;;;;;;;;10.33;6.33;;;;;-147.47;100.00;64613.53;4891717;29;29587;-80
2023/12/09 04:47:36;;;;;;;;;12.00;6.00;;;;;-147.47;100.00;64613.53;4893987;29;28429;-80
2023/12/09 04:50:04;;;;;;;;;12.67;8.00;;;;;-147.47;100.00;64613.53;4889873;29;28649;-79
2023/12/09 04:52:29;;;;;;;;;8.67;7.33;;;;;-147.47;100.00;64613.53;4893333;29;28701;-80
2023/12/09 04:54:54;;;;;;;;;9.00;8.00;;;;;-147.47;100.00;64613.53;4894095;29;28482;-79
2023/12/09 04:57:20;;;;;;;;;8.33;7.00;;;;;-147.47;100.00;64613.53;4893245;29;28975;-78
2023/12/09 04:59:45;;;;;;;;;11.67;8.00;;;;;-147.47;100.00;64613.53;4891935;29;28800;-79
2023/12/09 05:02:11;;;;;;;;;9.33;7.33;;;;;-147.47;100.00;64613.53;4894007;29;28587;-79
2023/12/09 05:04:36;;;;;;;;;7.00;6.00;;;;;-147.47;100.00;64613.53;4893163;29;28489;-80
2023/12/09 05:07:03;;;;;;;;;8.67;6.00;;;;;-147.47;100.00;64613.53;4895118;29;29509;-79
2023/12/09 05:09:28;;;;;;;;;11.00;5.00;;;;;-147.47;100.00;64613.53;4894086;29;28802;-80
2023/12/09 05:11:54;;;;;;;;;10.33;6.00;;;;;-147.47;100.00;64613.53;4891123;29;29029;-80
2023/12/09 05:14:19;;;;;;;;;7.67;4.00;;;;;-147.47;100.00;64613.53;4883479;29;28700;-80
2023/12/09 05:16:44;;;;;;;;;12.67;6.67;;;;;-147.47;100.00;64613.53;4892358;29;28436;-80
2023/12/09 05:19:10;;;;;;;;;4.33;4.00;;;;;-147.47;100.00;64613.53;4906573;29;28617;-81
2023/12/09 05:21:35;;;;;;;;;10.33;5.00;;;;;-147.47;100.00;64613.53;4892019;29;29913;-81
2023/12/09 05:24:01;;;;;;;;;4.33;3.00;;;;;-147.47;100.00;64613.53;4908025;29;29189;-80
2023/12/09 05:26:28;;;;;;;;;9.67;3.67;;;;;-147.47;100.00;64613.53;4892416;29;28931;-80
2023/12/09 05:28:54;;;;;;;;;4.00;3.00;;;;;-147.47;100.00;64613.53;4895088;29;28859;-80
2023/12/09 05:31:20;;;;;;;;;3.00;3.00;;;;;-147.47;100.00;64613.53;4895163;29;28580;-80
2023/12/09 05:33:46;;;;;;;;;4.33;3.00;;;;;-147.47;100.00;64613.53;4891447;29;28954;-80
2023/12/09 05:36:12;;;;;;;;;9.67;4.00;;;;;-147.47;100.00;64613.53;4892921;29;29569;-80
2023/12/09 05:38:38;;;;;;;;;5.00;2.33;;;;;-147.47;100.00;64613.53;4884800;29;28631;-79
2023/12/09 05:41:04;;;;;;;;;8.00;4.00;;;;;-147.47;100.00;64613.53;4891444;29;28446;-81
2023/12/09 05:43:29;;;;;;;;;6.33;4.00;;;;;-147.47;100.00;64613.53;4875864;29;30076;-80
2023/12/09 05:45:55;;;;;;;;;6.00;4.00;;;;;-147.47;100.00;64613.53;4908175;29;30174;-81
2023/12/09 05:48:20;;;;;;;;;3.33;3.00;;;;;-147.47;100.00;64613.53;4892505;29;28527;-81
2023/12/09 05:50:46;;;;;;;;;6.67;5.00;;;;;-147.47;100.00;64613.53;4892221;29;28604;-81
2023/12/09 05:53:11;;;;;;;;;6.00;4.33;;;;;-147.47;100.00;64613.53;4890542;29;29199;-81
2023/12/09 05:55:37;;;;;;;;;8.67;4.00;;;;;-147.47;100.00;64613.53;4891600;28;29126;-80
2023/12/09 05:58:03;;;;;;;;;4.00;4.00;;;;;-147.47;100.00;64613.53;4906481;29;29940;-81
2023/12/09 06:00:28;;;;;;;;;7.00;4.00;;;;;-147.47;100.00;64613.53;4904963;29;28591;-80
2023/12/09 06:02:54;;;;;;;;;7.00;4.00;;;;;-147.47;100.00;64613.53;4901668;29;28901;-80
2023/12/09 06:05:19;;;;;;;;;9.00;4.67;;;;;-147.47;100.00;64613.53;4888779;29;28402;-80
2023/12/09 06:07:45;;;;;;;;;6.67;6.00;;;;;-147.47;100.00;64613.53;4893091;28;28545;-80
2023/12/09 06:10:10;;;;;;;;;6.00;4.00;;;;;-147.47;100.00;64613.53;4892163;29;28695;-79
2023/12/09 06:12:35;;;;;;;;;7.67;4.00;;;;;-147.47;100.00;64613.53;4892301;29;29031;-78
2023/12/09 06:15:01;;;;;;;;;6.67;4.67;;;;;-147.47;100.00;64613.53;4907195;29;30071;-82
2023/12/09 06:17:26;;;;;;;;;9.67;4.67;;;;;-147.47;100.00;64613.53;4891141;29;28403;-81
2023/12/09 06:19:51;;;;;;;;;4.00;3.67;;;;;-147.47;100.00;64613.53;4891974;29;28803;-80
2023/12/09 06:22:17;;;;;;;;;5.33;4.00;;;;;-147.47;100.00;64613.53;4893641;29;28786;-80
2023/12/09 06:24:45;;;;;;;;;5.33;5.33;;;;;-147.47;100.00;64613.53;4890282;29;28938;-81
2023/12/09 06:27:11;;;;;;;;;4.33;4.00;;;;;-147.47;100.00;64613.53;4893808;29;28963;-80
2023/12/09 06:29:37;;;;;;;;;8.00;4.00;;;;;-147.47;100.00;64613.53;4894719;29;28898;-81
2023/12/09 06:32:03;;;;;;;;;6.00;4.00;;;;;-147.47;100.00;64613.53;4890841;29;28557;-81
2023/12/09 06:34:29;;;;;;;;;7.00;3.00;;;;;-147.47;100.00;64613.53;4893158;29;28366;-81
2023/12/09 06:36:54;;;;;;;;;6.67;5.00;;;;;-147.47;100.00;64613.53;4892178;29;28850;-81
2023/12/09 06:39:19;;;;;;;;;5.33;3.67;;;;;-147.47;100.00;64613.53;4889666;29;28999;-82
2023/12/09 06:41:45;;;;;;;;;3.67;3.00;;;;;-147.47;100.00;64613.53;4908223;29;29610;-80
2023/12/09 06:44:10;;;;;;;;;5.67;2.33;;;;;-147.47;100.00;64613.53;4891454;29;29951;-81
2023/12/09 06:46:38;;;;;;;;;6.00;6.00;;;;;-147.47;100.00;64613.53;4908657;29;28546;-81
2023/12/09 06:49:03;;;;;;;;;6.00;3.00;;;;;-147.47;100.00;64613.53;4904589;28;28791;-73
2023/12/09 06:51:29;;;;;;;;;5.00;5.00;;;;;-147.47;100.00;64613.53;4890962;29;28876;-74
2023/12/09 06:53:55;;;;;;;;;8.33;2.00;;;;;-147.47;100.00;64613.53;4890546;29;29425;-73
2023/12/09 06:56:22;;;;;;;;;6.00;3.33;;;;;-147.47;100.00;64613.53;4892124;29;28813;-75
2023/12/09 06:58:48;;;;;;;;;2.33;2.33;;;;;-147.47;100.00;64613.53;4889599;29;28622;-81
2023/12/09 07:01:23;;;;;;;;;6.67;4.00;;;;;-147.47;100.00;64613.53;4894378;29;28707;-81
2023/12/09 07:03:51;;;;;;;;;5.67;2.00;;;;;-147.47;100.00;64613.53;4894220;29;28857;-80
2023/12/09 07:06:28;;;;;;;;;7.00;3.00;;;;;-147.47;100.00;64613.53;4906290;28;28417;-83
2023/12/09 07:08:53;;;;;;;;;5.00;3.67;;;;;-147.47;100.00;64613.53;4891132;29;28534;-80
2023/12/09 07:11:21;;;;;;;;;3.33;3.33;;;;;-147.47;100.00;64613.53;4904418;29;29065;-79
2023/12/09 07:13:47;;;;;;;;;3.00;2.00;;;;;-147.47;100.00;64613.53;4903964;28;29185;-81
2023/12/09 07:16:13;;;;;;;;;1.00;1.00;;;;;-147.47;100.00;64613.53;4888528;29;28585;-80
2023/12/09 07:18:43;;;;;;;;;3.00;2.00;;;;;-147.47;100.00;64613.53;4906129;28;29032;-82
2023/12/09 07:25:09;;;;;;;;;6.33;3.00;;;;;-147.47;100.00;64613.53;4850796;29;29003;-83
2023/12/09 07:27:35;;;;;;;;;6.00;3.33;;;;;-147.47;100.00;64613.53;4882091;29;28484;-80
2023/12/09 07:33:45;;;;;;;;;7.00;3.67;;;;;-147.47;100.00;64613.53;4822916;29;27994;-87
2023/12/09 07:36:19;;;;;;;;;3.67;3.67;;;;;-147.47;100.00;64613.53;4807818;29;28837;-82
2023/12/09 07:39:17;;;;;;;;;4.00;3.00;;;;;-147.47;100.00;64613.53;4821981;29;28631;-83
2023/12/09 07:42:09;;;;;;;;;3.00;3.00;;;;;-147.47;100.00;64613.53;4814469;29;29050;-85
2023/12/09 07:44:43;;;;;;;;;5.33;3.33;;;;;-147.47;100.00;64613.53;4842664;29;28003;-83
2023/12/09 07:47:12;;;;;;;;;3.33;3.33;;;;;-147.47;100.00;64613.53;4861614;29;29050;-83
2023/12/09 07:49:49;;;;;;;;;4.00;3.00;;;;;-147.47;100.00;64613.53;4878047;29;28679;-80
2023/12/09 07:52:15;;;;;;;;;5.67;4.00;;;;;-147.47;100.00;64613.53;4895423;29;28413;-81
2023/12/09 07:54:41;;;;;;;;;3.67;2.33;;;;;-147.47;100.00;64613.53;4893727;29;28762;-80
2023/12/09 07:57:06;;;;;;;;;4.00;3.00;;;;;-147.47;100.00;64613.53;4899802;28;29439;-82
2023/12/09 07:59:32;;;;;;;;;2.00;2.00;;;;;-147.47;100.00;64613.53;4899923;29;28361;-84
2023/12/09 08:02:23;;;;;;;;;2.00;2.00;;;;;-147.47;100.00;64613.53;4902003;29;28004;-85
2023/12/09 08:05:00;;;;;;;;;3.33;3.33;;;;;-147.47;100.00;64613.53;4901009;29;28271;-85
2023/12/09 08:07:44;;;;;;;;;3.00;3.00;;;;;-147.47;100.00;64613.53;4908111;29;28107;-84
2023/12/09 08:10:10;;;;;;;;;3.00;1.67;;;;;-147.47;100.00;64613.53;4894588;29;28644;-81
2023/12/09 08:12:36;;;;;;;;;2.00;1.00;;;;;-147.47;100.00;64613.53;4907910;28;28867;-81
2023/12/09 08:15:12;;;;;;;;;2.67;2.67;;;;;-147.47;100.00;64613.53;4911726;28;29020;-85
2023/12/09 08:18:03;;;;;;;;;5.67;3.00;;;;;-147.47;100.00;64613.53;4902658;28;29778;-83
2023/12/09 08:20:58;;;;;;;;;3.33;2.33;;;;;-147.47;100.00;64613.53;4905870;29;28375;-84
2023/12/09 08:23:29;;;;;;;;;4.33;0.00;;;;;-147.47;100.00;64613.53;4902007;28;28592;-81
2023/12/09 08:26:29;;;;;;;;;4.67;1.33;;;;;-147.47;100.00;64613.53;4895985;29;28869;-83
2023/12/09 08:29:03;;;;;;;;;3.00;3.00;;;;;-147.47;100.00;64613.53;4890645;29;28697;-82
2023/12/09 08:31:31;;;;;;;;;3.67;3.00;;;;;-147.47;100.00;64613.53;4895982;29;28637;-82
2023/12/09 08:33:56;;;;;;;;;2.00;2.00;;;;;-147.47;100.00;64613.53;4910139;29;28417;-83
2023/12/09 08:36:25;;;;;;;;;2.00;1.00;;;;;-147.47;100.00;64613.53;4923680;28;28514;-88
2023/12/09 08:38:58;;;;;;;;;3.67;2.33;;;;;-147.47;100.00;64613.53;4908331;29;28588;-87
2023/12/09 08:41:25;;;;;;;;;4.00;2.00;;;;;-147.47;100.00;64613.53;4907410;29;27901;-81
2023/12/09 08:43:53;;;;;;;;;3.67;3.00;;;;;-147.47;100.00;64613.53;4894284;29;28150;-80
2023/12/09 08:46:19;;;;;;;;;3.00;2.67;;;;;-147.47;100.00;64613.53;4905299;29;28675;-85
2023/12/09 08:48:45;;;;;;;;;1.67;1.67;;;;;-147.47;100.00;64613.53;4885773;29;30130;-86
2023/12/09 08:51:11;;;;;;;;;1.00;1.00;;;;;-147.47;100.00;64613.53;4887398;29;28003;-85
2023/12/09 08:53:37;;;;;;;;;3.33;2.00;;;;;-147.47;100.00;64613.53;4908547;29;27904;-86
2023/12/09 08:56:12;;;;;;;;;3.00;2.00;;;;;-147.47;100.00;64613.53;4907459;29;28329;-88
2023/12/09 08:58:42;;;;;;;;;1.00;1.00;;;;;-147.47;100.00;64613.53;4918858;29;28626;-85
2023/12/09 09:01:09;;;;;;;;;2.33;1.00;;;;;-147.47;100.00;64613.53;4908418;29;28667;-86
2023/12/09 09:03:34;;;;;;;;;2.00;2.00;;;;;-147.47;100.00;64613.53;4910069;29;27960;-84
2023/12/09 09:06:00;;;;;;;;;1.00;0.67;;;;;-147.47;100.00;64613.53;4909204;29;28800;-85
2023/12/09 09:08:27;;;;;;;;;3.00;2.00;;;;;-147.47;100.00;64613.53;4889560;29;28386;-87
2023/12/09 09:10:53;;;;;;;;;2.67;2.00;;;;;-147.47;100.00;64613.53;4909116;29;28864;-80
2023/12/09 09:13:19;;;;;;;;;2.00;1.00;;;;;-147.47;100.00;64613.53;4902435;29;28693;-87
2023/12/09 09:15:45;;;;;;;;;1.00;1.00;;;;;-147.47;100.00;64613.53;4903704;29;28877;-86
2023/12/09 09:18:11;;;;;;;;;2.67;1.00;;;;;-147.47;100.00;64613.53;4902719;29;28462;-86
2023/12/09 09:20:36;;;;;;;;;4.67;2.00;;;;;-147.47;100.00;64613.53;4907260;29;29332;-87
2023/12/09 09:23:02;;;;;;;;;1.50;1.00;;;;;-147.47;100.00;64613.53;4908855;29;28465;-86
2023/12/09 09:25:27;;;;;;;;;1.33;1.00;;;;;-147.47;100.00;64613.53;4890691;29;29663;-87
2023/12/09 09:27:53;;;;;;;;;0.00;0.00;;;;;-147.47;100.00;64613.53;4900940;29;29679;-87
2023/12/09 09:30:25;;;;;;;;;1.00;0.00;;;;;-147.47;100.00;64613.53;4905889;29;28547;-87
2023/12/09 09:32:51;;;;;;;;;2.00;1.00;;;;;-147.47;100.00;64613.53;4909270;29;28984;-88
2023/12/09 09:35:18;;;;;;;;;0.67;0.67;;;;;-147.47;100.00;64613.53;4911016;29;28499;-89
2023/12/09 09:37:43;;;;;;;;;2.00;0.00;;;;;-147.47;100.00;64613.53;4905860;29;30055;-87
2023/12/09 09:40:11;;;;;;;;;0.67;0.67;;;;;-147.47;100.00;64613.53;4909024;29;28601;-89
2023/12/09 09:42:44;;;;;;;;;2.00;1.67;;;;;-147.47;100.00;64613.53;4917039;28;28468;-87
2023/12/09 09:45:22;;;;;;;;;1.00;0.00;;;;;-147.47;100.00;64613.53;4912800;29;29275;-88
2023/12/09 09:47:53;;;;;;;;;0.33;0.00;;;;;-147.47;100.00;64613.53;4904360;28;28774;-86
2023/12/09 09:50:26;;;;;;;;;4.00;1.67;;;;;-147.47;100.00;64613.53;4919742;28;28496;-86
2023/12/09 09:52:53;;;;;;;;;1.00;1.00;;;;;-147.47;100.00;64613.53;4905201;29;28914;-85
2023/12/09 09:55:21;;;;;;;;;0.00;0.00;;;;;-147.47;100.00;64613.53;4904873;29;28649;-86
2023/12/09 09:57:51;;;;;;;;;0.67;0.00;;;;;-147.47;100.00;64613.53;4903602;29;28990;-86
2023/12/09 10:00:19;;;;;;;;;0.33;0.33;;;;;-147.47;100.00;64613.53;4910609;29;29124;-87
2023/12/09 10:02:49;;;;;;;;;1.00;1.00;;;;;-147.47;100.00;64613.53;4907895;29;27954;-87
2023/12/09 10:05:20;;;;;;;;;0.00;0.00;;;;;-147.47;100.00;64613.53;4911628;29;28525;-89
2023/12/09 10:07:48;;;;;;;;;0.33;0.33;;;;;-147.47;100.00;64613.53;4903502;29;28362;-89
2023/12/09 10:10:17;;;;;;;;;1.00;1.00;;;;;-147.47;100.00;64613.53;4908682;29;28684;-88
2023/12/09 10:12:46;;;;;;;;;2.00;0.00;;;;;-147.47;100.00;64613.53;4904986;29;28868;-88
2023/12/09 10:15:17;;;;;;;;;1.00;1.00;;;;;-147.47;100.00;64613.53;4901997;29;28670;-89
2023/12/09 10:17:45;;;;;;;;;3.00;1.00;;;;;-147.47;100.00;64613.53;4904537;29;28612;-88
2023/12/09 10:20:11;;;;;;;;;0.00;0.00;;;;;-147.47;100.00;64613.53;4904346;29;28726;-88
2023/12/09 10:22:42;;;;;;;;;1.00;1.00;;;;;-147.47;100.00;64613.53;4916721;29;27961;-89
2023/12/09 10:25:11;;;;;;;;;2.00;1.00;;;;;-147.47;100.00;64613.53;4923718;28;28520;-87
2023/12/09 10:27:41;;;;;;;;;0.00;0.00;;;;;-147.47;100.00;64613.53;4908811;29;28478;-85
2023/12/09 10:30:08;;;;;;;;;1.00;0.33;;;;;-147.47;100.00;64613.53;4911100;29;29291;-88
2023/12/09 10:32:39;;;;;;;;;0.00;0.00;;;;;-147.47;100.00;64613.53;4911480;29;28077;-88
2023/12/09 10:35:26;;;;;;;;;1.00;0.00;;;;;-147.47;100.00;64613.53;4913493;29;29361;-89
2023/12/09 10:40:50;;;;;;;;;0.00;0.00;;;;;-147.47;100.00;64613.53;4909146;28;28740;-84
2023/12/09 10:43:17;;;;;;;;;3.33;0.67;;;;;-147.47;100.00;64613.53;4905559;28;28899;-81
2023/12/09 10:45:42;;;;;;;;;2.00;0.00;;;;;-147.47;100.00;64613.53;4903512;29;28851;-77
2023/12/09 10:48:08;;;;;;;;;1.67;0.00;;;;;-147.47;100.00;64613.53;4905253;28;29232;-78
2023/12/09 10:50:36;;;;;;;;;0.00;0.00;;;;;-147.47;100.00;64613.53;4912849;28;28858;-77
2023/12/09 10:53:02;;;;;;;;;0.00;0.00;;;;;-147.47;100.00;64613.53;4890890;28;28541;-79
2023/12/09 10:55:27;;;;;;;;;0.00;0.00;;;;;-147.47;100.00;64613.53;4887459;29;29118;-79
2023/12/09 10:57:54;;;;;;;;;0.00;0.00;;;;;-147.47;100.00;64613.53;4912573;28;28445;-81
2023/12/09 11:00:21;;;;;;;;;1.00;0.00;;;;;-147.47;100.00;64613.53;4914744;28;28446;-82
2023/12/09 11:02:48;;;;;;;;;2.00;2.00;;;;;-147.47;100.00;64613.53;4911426;28;29021;-81
2023/12/09 11:05:14;;;;;;;;;1.00;1.00;;;;;-147.47;100.00;64613.53;4911479;28;28856;-80
2023/12/09 11:07:45;;;;;;;;;2.67;1.00;;;;;-147.47;100.00;64613.53;4903724;28;29337;-81
2023/12/09 11:10:12;;;;;;;;;1.00;1.00;;;;;-147.47;100.00;64613.53;4912030;29;28730;-81
2023/12/09 11:12:38;;;;;;;;;0.00;0.00;;;;;-147.47;100.00;64613.53;4916450;28;28510;-78
2023/12/09 11:15:15;;;;;;;;;0.00;0.00;;;;;-147.47;100.00;64613.53;4896405;29;29923;-79
2023/12/09 11:17:44;;;;;;;;;0.00;0.00;;;;;-147.47;100.00;64613.53;4907781;28;29113;-77
2023/12/09 11:20:14;;;;;;;;;0.00;0.00;;;;;-147.47;100.00;64613.53;4908379;28;28862;-78